createdAt,value
2022-07-28T00:01:07.611Z,16.94
2022-07-28T00:06:20.061Z,16.85
2022-07-28T00:11:32.415Z,16.78
2022-07-28T00:16:44.819Z,16.71
2022-07-28T00:21:57.072Z,16.62
2022-07-28T00:27:09.183Z,16.51
2022-07-28T00:32:21.424Z,16.42
2022-07-28T00:37:33.662Z,16.42
2022-07-28T00:42:46.143Z,16.42
2022-07-28T00:47:58.599Z,16.42
2022-07-28T00:53:10.968Z,16.41
2022-07-28T00:58:23.442Z,16.4
2022-07-28T01:03:35.788Z,16.38
2022-07-28T01:08:48.209Z,16.33
2022-07-28T01:14:00.578Z,16.32
2022-07-28T01:19:12.946Z,16.34
2022-07-28T01:24:25.284Z,16.33
2022-07-28T01:29:37.709Z,16.27
2022-07-28T01:34:50.049Z,16.18
2022-07-28T01:40:02.247Z,16.09
2022-07-28T01:45:14.680Z,16
2022-07-28T01:50:26.986Z,15.95
2022-07-28T01:55:39.330Z,15.87
2022-07-28T02:00:51.849Z,15.82
2022-07-28T02:06:04.175Z,15.77
2022-07-28T02:11:16.604Z,15.72
2022-07-28T02:16:29.163Z,15.66
2022-07-28T02:21:41.435Z,15.61
2022-07-28T02:26:53.758Z,15.54
2022-07-28T02:32:06.235Z,15.41
2022-07-28T02:37:18.859Z,15.29
2022-07-28T02:42:31.201Z,15.23
2022-07-28T02:47:43.459Z,15.16
2022-07-28T02:52:55.814Z,15.11
2022-07-28T02:58:07.912Z,15.06
2022-07-28T03:03:20.239Z,15.01
2022-07-28T03:08:33.275Z,14.94
2022-07-28T03:13:45.397Z,14.87
2022-07-28T03:18:57.738Z,14.86
2022-07-28T03:24:10.048Z,14.87
2022-07-28T03:29:22.492Z,14.86
2022-07-28T03:34:35.093Z,14.84
2022-07-28T03:39:47.515Z,14.8
2022-07-28T03:44:59.739Z,14.77
2022-07-28T03:50:12.062Z,14.72
2022-07-28T03:55:24.417Z,14.68
2022-07-28T04:00:37.138Z,14.68
2022-07-28T04:05:49.544Z,14.68
2022-07-28T04:11:01.798Z,14.69
2022-07-28T04:16:14.374Z,14.72
2022-07-28T04:21:26.595Z,14.75
2022-07-28T04:26:38.966Z,14.81
2022-07-28T04:31:51.571Z,14.86
2022-07-28T04:37:04.066Z,14.92
2022-07-28T04:42:16.357Z,14.96
2022-07-28T04:47:28.755Z,15.03
2022-07-28T04:52:40.979Z,15.11
2022-07-28T04:57:53.432Z,15.19
2022-07-28T05:03:06.089Z,15.27
2022-07-28T05:08:18.551Z,15.36
2022-07-28T05:13:33.888Z,15.47
2022-07-28T05:18:43.187Z,15.53
2022-07-28T05:23:55.639Z,15.57
2022-07-28T05:29:07.926Z,15.62
2022-07-28T05:34:20.365Z,15.71
2022-07-28T05:39:32.796Z,15.78
2022-07-28T05:44:45.221Z,15.9
2022-07-28T05:49:57.866Z,15.98
2022-07-28T05:55:10.178Z,16.12
2022-07-28T06:00:22.613Z,16.33
2022-07-28T06:05:35.235Z,16.54
2022-07-28T06:10:47.557Z,16.76
2022-07-28T06:16:00.433Z,16.96
2022-07-28T06:21:12.722Z,17.09
2022-07-28T06:26:25.240Z,17.12
2022-07-28T06:31:37.672Z,17.19
2022-07-28T06:36:50.189Z,17.26
2022-07-28T06:42:02.537Z,17.38
2022-07-28T06:47:15.007Z,17.5
2022-07-28T06:52:27.321Z,17.66
2022-07-28T06:57:39.597Z,17.79
2022-07-28T07:02:52.150Z,17.95
2022-07-28T07:08:04.402Z,18.12
2022-07-28T07:13:16.712Z,18.26
2022-07-28T07:18:29.021Z,18.4
2022-07-28T07:23:41.215Z,18.44
2022-07-28T07:28:53.662Z,18.47
2022-07-28T07:34:05.807Z,18.48
2022-07-28T07:39:18.193Z,18.48
2022-07-28T07:44:30.484Z,18.46
2022-07-28T07:49:45.766Z,18.57
2022-07-28T07:54:55.365Z,18.8
2022-07-28T08:00:07.779Z,19.02
2022-07-28T08:05:20.123Z,19.08
2022-07-28T08:10:32.292Z,19.03
2022-07-28T08:15:45.259Z,19.15
2022-07-28T08:20:57.520Z,19.26
2022-07-28T08:26:09.817Z,19.32
2022-07-28T08:31:22.353Z,19.46
2022-07-28T08:36:34.681Z,19.58
2022-07-28T08:41:47.053Z,19.66
2022-07-28T08:46:59.517Z,19.8
2022-07-28T08:52:11.855Z,19.95
2022-07-28T08:57:24.042Z,19.91
2022-07-28T09:02:36.452Z,19.86
2022-07-28T09:07:52.573Z,19.96
2022-07-28T09:13:01.104Z,20.11
2022-07-28T09:18:13.454Z,20.06
2022-07-28T09:23:33.876Z,20.15
2022-07-28T09:28:38.095Z,20.12
2022-07-28T09:33:50.312Z,20.08
2022-07-28T09:39:02.593Z,20.18
2022-07-28T09:44:15.468Z,20.32
2022-07-28T09:49:28.791Z,20.52
2022-07-28T09:54:41.106Z,20.64
2022-07-28T09:59:55.655Z,20.78
2022-07-28T10:05:04.556Z,20.76
2022-07-28T10:10:17.198Z,20.94
2022-07-28T10:15:31.083Z,21.19
2022-07-28T10:20:41.930Z,21.4
2022-07-28T10:25:54.359Z,21.61
2022-07-28T10:31:06.634Z,21.6
2022-07-28T10:36:19.116Z,21.68
2022-07-28T10:41:31.327Z,21.81
2022-07-28T10:46:44.014Z,22.05
2022-07-28T10:52:09.128Z,22.26
2022-07-28T10:57:08.725Z,22.47
2022-07-28T11:02:21.121Z,22.6
2022-07-28T11:07:33.384Z,22.55
2022-07-28T11:12:45.784Z,22.88
2022-07-28T11:17:59.387Z,23.36
2022-07-28T11:23:11.003Z,23.41
2022-07-28T11:28:23.681Z,23.41
2022-07-28T11:33:36.011Z,23.44
2022-07-28T11:38:48.352Z,23.8
2022-07-28T11:44:00.821Z,24.16
2022-07-28T11:49:14.788Z,24.59
2022-07-28T11:54:25.760Z,25.04
2022-07-28T11:59:38.123Z,24.96
2022-07-28T12:04:50.501Z,24.88
2022-07-28T12:10:02.939Z,25.08
2022-07-28T12:15:15.364Z,25.44
2022-07-28T12:20:27.748Z,25.61
2022-07-28T12:25:40.156Z,25.82
2022-07-28T12:30:52.474Z,26.05
2022-07-28T12:36:05.262Z,26.54
2022-07-28T12:41:17.854Z,27.23
2022-07-28T12:46:30.598Z,27.39
2022-07-28T12:51:42.997Z,27.42
2022-07-28T12:56:55.330Z,27.39
2022-07-28T13:02:07.589Z,27.49
2022-07-28T13:07:19.976Z,27.69
2022-07-28T13:12:32.304Z,27.42
2022-07-28T13:17:44.937Z,27.54
2022-07-28T13:22:57.289Z,27.71
2022-07-28T13:28:09.698Z,27.9
2022-07-28T13:33:22.008Z,28.11
2022-07-28T13:38:34.525Z,28.73
2022-07-28T13:43:48.096Z,29.35
2022-07-28T13:49:00.123Z,29.69
2022-07-28T13:54:12.139Z,30.24
2022-07-28T13:59:26.269Z,30.56
2022-07-28T14:04:36.660Z,30.27
2022-07-28T14:09:48.979Z,30.47
2022-07-28T14:15:01.307Z,30.59
2022-07-28T14:20:14.552Z,30.47
2022-07-28T14:25:26.780Z,30.29
2022-07-28T14:30:39.080Z,30.14
2022-07-28T14:35:51.324Z,30.07
2022-07-28T14:41:03.718Z,30.4
2022-07-28T14:46:21.320Z,30.89
2022-07-28T14:51:28.876Z,31.36
2022-07-28T14:56:41.513Z,31.46
2022-07-28T15:01:54.051Z,31.55
2022-07-28T15:07:06.170Z,31.51
2022-07-28T15:12:18.902Z,31.28
2022-07-28T15:17:31.320Z,31.21
2022-07-28T15:22:43.842Z,31.56
2022-07-28T15:27:56.188Z,31.54
2022-07-28T15:33:08.446Z,31.26
2022-07-28T15:38:20.710Z,31.28
2022-07-28T15:43:33.049Z,31.33
2022-07-28T15:48:45.807Z,31.93
2022-07-28T15:53:58.097Z,32.2
2022-07-28T15:59:10.367Z,32.35
2022-07-28T16:04:23.159Z,32.65
2022-07-28T16:09:45.217Z,33.2
2022-07-28T16:14:48.858Z,33.68
2022-07-28T16:20:02.214Z,33.75
2022-07-28T16:25:14.700Z,33.98
2022-07-28T16:30:25.674Z,34.32
2022-07-28T16:35:38.034Z,34.61
2022-07-28T16:40:50.240Z,34.67
2022-07-28T16:46:02.582Z,34.91
2022-07-28T16:51:14.897Z,34.84
2022-07-28T16:56:27.009Z,34.66
2022-07-28T17:01:43.670Z,34.28
2022-07-28T17:06:51.107Z,33.78
2022-07-28T17:12:03.552Z,33.69
2022-07-28T17:17:15.814Z,33.78
2022-07-28T17:22:28.119Z,33.54
2022-07-28T17:27:42.320Z,33.26
2022-07-28T17:32:52.456Z,32.81
2022-07-28T17:38:04.732Z,32.34
2022-07-28T17:43:16.996Z,32.11
2022-07-28T17:48:29.149Z,31.94
2022-07-28T17:53:41.250Z,31.56
2022-07-28T17:58:53.549Z,31.31
2022-07-28T18:04:05.671Z,31.15
2022-07-28T18:09:17.884Z,30.75
2022-07-28T18:14:30.516Z,30.41
2022-07-28T18:19:45.488Z,30.02
2022-07-28T18:24:54.573Z,29.57
2022-07-28T18:30:06.667Z,29.12
2022-07-28T18:35:18.996Z,28.81
2022-07-28T18:40:31.235Z,28.44
2022-07-28T18:45:43.683Z,28.16
2022-07-28T18:50:55.875Z,27.97
2022-07-28T18:56:08.189Z,27.75
2022-07-28T19:01:20.778Z,27.48
2022-07-28T19:06:33.136Z,27.27
2022-07-28T19:11:46.410Z,27.12
2022-07-28T19:16:57.662Z,27
2022-07-28T19:22:09.911Z,26.94
2022-07-28T19:27:22.171Z,26.9
2022-07-28T19:32:34.502Z,26.77
2022-07-28T19:37:46.786Z,26.66
2022-07-28T19:42:59.011Z,26.5
2022-07-28T19:48:11.460Z,26.34
2022-07-28T19:53:25.223Z,26.26
2022-07-28T19:58:36.257Z,26.19
2022-07-28T20:04:00.218Z,26.15
2022-07-28T20:09:00.955Z,26.08
2022-07-28T20:14:13.438Z,25.99
2022-07-28T20:19:25.653Z,25.88
2022-07-28T20:24:38.104Z,25.81
2022-07-28T20:29:50.548Z,25.76
2022-07-28T20:35:02.805Z,25.68
2022-07-28T20:40:15.154Z,25.63
2022-07-28T20:45:27.410Z,25.53
2022-07-28T20:50:39.654Z,25.49
2022-07-28T20:55:51.927Z,25.36
2022-07-28T21:01:04.239Z,25.27
2022-07-28T21:06:16.480Z,25.23
2022-07-28T21:11:28.987Z,25.14
2022-07-28T21:16:41.858Z,25.1
2022-07-28T21:21:53.964Z,25.09
2022-07-28T21:27:06.270Z,25.06
2022-07-28T21:32:18.900Z,25.02
2022-07-28T21:37:30.982Z,25
2022-07-28T21:42:43.422Z,24.93
2022-07-28T21:47:55.698Z,24.85
2022-07-28T21:53:07.949Z,24.8
2022-07-28T21:58:20.088Z,24.76
2022-07-28T22:03:32.410Z,24.68
2022-07-28T22:08:44.761Z,24.55
2022-07-28T22:13:57.196Z,24.47
2022-07-28T22:19:09.635Z,24.47
2022-07-28T22:24:21.729Z,24.46
2022-07-28T22:29:34.046Z,24.4
2022-07-28T22:34:46.348Z,24.4
2022-07-28T22:39:58.574Z,24.36
2022-07-28T22:45:11.354Z,24.3
2022-07-28T22:50:23.785Z,24.3
2022-07-28T23:00:49.183Z,24.26
2022-07-28T23:06:00.684Z,24.18
2022-07-28T23:11:13.175Z,24.14
2022-07-28T23:16:31.614Z,24.11
2022-07-28T23:21:44.063Z,24.06
2022-07-28T23:26:56.392Z,24.03
2022-07-28T23:32:10.704Z,23.97
2022-07-28T23:37:20.921Z,23.94
2022-07-28T23:42:33.027Z,23.91
2022-07-28T23:47:45.473Z,23.86
2022-07-28T23:53:00.261Z,23.85
2022-07-28T23:58:09.939Z,23.8
